Weather at Uralla Private strip?

Public forecast

Using degrees Celsius for public forecast. Weather courtesy of forecast.io.

Closest aviation weather report (METAR) to Uralla Private strip?

Closest report is Tamworth Airport, 41.2 nm (76.2 km) SW. Retrieved 2022/05/22 17:00 UTC (12 minutes ago):

YSTW 221700Z AUTO 17006KT 9999 // OVC093 10/09 Q1024 RF000/0030

Closest aviation forecast (TAF) to Uralla Private strip?

Closest forecast is Tamworth Airport, 41.2 nm (76.2 km) SW. Retrieved 2022/05/22 12:36 UTC (5 hours ago):

TAF YSTW 221113Z 2212/2306 14006KT CAVOK FM230400 12008KT 9999 SCT050